Time;durP1;ratioP1;P1;durP2;ratioP2;P2;SDS_P1;SDS_P2;PMS_P1;PMS_P2;Temp;Humidity;BMP_temperature;BMP_pressure;BME280_temperature;BME280_humidity;BME280_pressure;Samples;Min_cycle;Max_cycle;Signal;HPM_P1;HPM_P2
2020/12/23 00:00:29;;;;;;;0.10;0.10;;;;;;;12.62;84.66;99733.50;4914929;29;20059;-75
2020/12/23 00:02:54;;;;;;;0.10;0.10;;;;;;;12.64;85.17;99736.75;4932344;29;20532;-75
2020/12/23 00:05:20;;;;;;;0.10;0.10;;;;;;;12.66;85.27;99734.56;4923148;29;20060;-73
2020/12/23 00:07:45;;;;;;;0.30;0.30;;;;;;;12.66;84.80;99734.56;4894385;29;20044;-74
2020/12/23 00:10:11;;;;;;;0.40;0.40;;;;;;;12.69;85.09;99744.13;4926343;29;20028;-72
2020/12/23 00:12:37;;;;;;;0.10;0.10;;;;;;;12.69;84.86;99742.19;4892793;29;20028;-73
2020/12/23 00:15:04;;;;;;;0.30;0.30;;;;;;;12.72;84.91;99738.84;4934160;29;20078;-73
2020/12/23 00:17:30;;;;;;;0.30;0.30;;;;;;;12.72;84.90;99738.03;4942769;29;20030;-75
2020/12/23 00:19:55;;;;;;;0.20;0.20;;;;;;;12.71;84.70;99736.41;4943547;29;20099;-74
2020/12/23 00:22:21;;;;;;;0.35;0.35;;;;;;;12.68;85.07;99721.34;4938932;29;20028;-75
2020/12/23 00:24:46;;;;;;;0.20;0.20;;;;;;;12.67;85.18;99725.19;4924770;29;20038;-75
2020/12/23 00:27:12;;;;;;;0.20;0.20;;;;;;;12.67;84.76;99721.66;4925834;29;20031;-74
2020/12/23 00:29:38;;;;;;;0.10;0.10;;;;;;;12.68;85.27;99720.53;4920424;29;20545;-76
2020/12/23 00:32:04;;;;;;;0.20;0.20;;;;;;;12.68;84.89;99715.06;4926698;29;20038;-74
2020/12/23 00:34:29;;;;;;;0.20;0.20;;;;;;;12.67;84.35;99716.97;4918062;29;20154;-75
2020/12/23 00:36:57;;;;;;;0.20;0.20;;;;;;;12.65;85.00;99713.72;4930996;29;20036;-75
2020/12/23 00:39:22;;;;;;;0.40;0.40;;;;;;;12.64;85.22;99714.81;4927128;29;20052;-74
2020/12/23 00:41:49;;;;;;;0.20;0.20;;;;;;;12.65;84.98;99712.91;4925868;29;20124;-75
2020/12/23 00:44:15;;;;;;;0.10;0.10;;;;;;;12.68;84.79;99699.41;4906415;29;20170;-72
2020/12/23 00:46:41;;;;;;;0.20;0.20;;;;;;;12.69;85.42;99701.03;4919606;29;20066;-74
2020/12/23 00:49:07;;;;;;;1.88;0.10;;;;;;;12.67;84.52;99703.25;4911454;29;20059;-73
2020/12/23 00:51:33;;;;;;;0.30;0.30;;;;;;;12.68;84.72;99699.41;4894118;29;20043;-74
2020/12/23 00:53:58;;;;;;;0.20;0.20;;;;;;;12.69;84.64;99684.59;4906315;29;20027;-75
2020/12/23 00:56:24;;;;;;;0.10;0.10;;;;;;;12.70;84.82;99680.75;4931384;29;20533;-74
2020/12/23 00:58:49;;;;;;;0.38;0.38;;;;;;;12.72;84.75;99673.00;4938491;29;20096;-75
2020/12/23 01:01:14;;;;;;;0.38;0.28;;;;;;;12.75;84.79;99699.03;4912161;29;20104;-76
2020/12/23 01:03:40;;;;;;;0.50;0.50;;;;;;;12.75;85.05;99691.63;4919674;29;20028;-76
2020/12/23 01:06:09;;;;;;;2.70;0.40;;;;;;;12.73;84.47;99685.63;4930385;29;20059;-77
2020/12/23 01:08:35;;;;;;;0.70;0.70;;;;;;;12.71;84.74;99671.38;4922212;29;20042;-78
2020/12/23 01:11:01;;;;;;;0.30;0.30;;;;;;;12.72;84.46;99675.75;4938303;29;20530;-78
2020/12/23 01:13:26;;;;;;;0.43;0.43;;;;;;;12.73;84.66;99680.13;4926003;29;20024;-77
2020/12/23 01:15:52;;;;;;;0.20;0.20;;;;;;;12.72;85.19;99673.00;4928104;29;20035;-76
2020/12/23 01:18:17;;;;;;;0.88;0.88;;;;;;;12.71;84.69;99671.38;4927743;29;20040;-77
2020/12/23 01:20:42;;;;;;;0.57;0.57;;;;;;;12.73;84.77;99674.66;4919482;29;20034;-75
2020/12/23 01:23:08;;;;;;;0.50;0.50;;;;;;;12.72;84.59;99670.28;4922105;29;20482;-78
2020/12/23 01:25:33;;;;;;;0.60;0.60;;;;;;;12.75;84.90;99666.13;4906815;29;20079;-78
2020/12/23 01:27:59;;;;;;;3.28;1.30;;;;;;;12.77;84.89;99668.56;4942393;29;20102;-76
2020/12/23 01:30:24;;;;;;;0.70;0.70;;;;;;;12.74;85.04;99650.75;4927331;29;20028;-77
2020/12/23 01:32:50;;;;;;;1.05;1.05;;;;;;;12.77;85.15;99663.06;4917945;29;20031;-77
2020/12/23 01:35:15;;;;;;;0.85;0.85;;;;;;;12.76;85.10;99654.00;4930508;29;20036;-76
2020/12/23 01:37:41;;;;;;;0.88;0.82;;;;;;;12.77;84.66;99658.41;4930272;29;20569;-76
2020/12/23 01:40:06;;;;;;;0.82;0.82;;;;;;;12.75;85.34;99655.94;4924557;29;20080;-77
2020/12/23 01:42:33;;;;;;;3.40;0.75;;;;;;;12.78;84.76;99648.25;4930090;29;20390;-77
2020/12/23 01:44:59;;;;;;;0.68;0.68;;;;;;;12.76;84.85;99645.78;4919459;29;20038;-77
2020/12/23 01:47:27;;;;;;;0.80;0.80;;;;;;;12.75;84.69;99644.97;4934029;29;20042;-77
2020/12/23 01:49:53;;;;;;;0.80;0.70;;;;;;;12.79;85.21;99647.13;4924343;29;20024;-77
2020/12/23 01:52:18;;;;;;;0.30;0.30;;;;;;;12.84;84.92;99655.28;4908768;29;20498;-76
2020/12/23 01:54:46;;;;;;;1.08;0.10;;;;;;;12.88;84.67;99648.09;4931126;29;20036;-76
2020/12/23 01:57:11;;;;;;;0.73;0.73;;;;;;;12.90;84.56;99654.06;4928809;29;20043;-78
2020/12/23 01:59:45;;;;;;;0.50;0.50;;;;;;;12.90;84.50;99657.63;4908528;29;20171;-77
2020/12/23 02:02:28;;;;;;;0.40;0.40;;;;;;;12.90;84.65;99652.13;4937560;29;20024;-78
2020/12/23 02:04:53;;;;;;;1.02;0.52;;;;;;;12.89;84.36;99655.19;4919859;29;20115;-77
2020/12/23 02:07:26;;;;;;;0.57;0.55;;;;;;;12.87;84.44;99660.97;4917265;29;20055;-78
2020/12/23 02:09:53;;;;;;;0.40;0.30;;;;;;;12.84;84.76;99658.03;4898208;29;20519;-78
2020/12/23 02:12:20;;;;;;;0.93;0.40;;;;;;;12.83;83.93;99645.41;4916099;29;20075;-77
2020/12/23 02:14:46;;;;;;;1.00;0.40;;;;;;;12.78;84.37;99649.06;4918104;29;20084;-76
2020/12/23 02:17:12;;;;;;;1.33;0.52;;;;;;;12.73;84.54;99649.97;4932701;29;20355;-77
2020/12/23 02:19:49;;;;;;;1.15;0.50;;;;;;;12.71;84.69;99648.63;4913220;29;20171;-78
2020/12/23 02:22:23;;;;;;;2.28;0.63;;;;;;;12.64;84.37;99654.47;4908228;29;20035;-77
2020/12/23 02:24:51;;;;;;;2.33;0.80;;;;;;;12.57;84.94;99648.56;4937714;29;20031;-76
2020/12/23 02:27:18;;;;;;;1.73;0.70;;;;;;;12.51;85.36;99647.84;4930389;29;20056;-76
2020/12/23 02:29:45;;;;;;;1.20;0.70;;;;;;;12.46;85.13;99658.06;4930576;29;20024;-77
2020/12/23 02:32:10;;;;;;;0.70;0.45;;;;;;;12.43;86.00;99639.47;4905848;29;20096;-77
2020/12/23 02:34:37;;;;;;;0.68;0.30;;;;;;;12.40;85.64;99643.63;4926670;29;20439;-78
2020/12/23 02:37:03;;;;;;;0.40;0.40;;;;;;;12.35;85.56;99641.78;4933863;29;20020;-76
2020/12/23 02:39:29;;;;;;;0.65;0.40;;;;;;;12.33;86.12;99643.19;4935709;29;20044;-77
2020/12/23 02:41:58;;;;;;;0.45;0.28;;;;;;;12.26;85.67;99638.06;4929398;29;20038;-77
2020/12/23 02:44:24;;;;;;;1.08;0.50;;;;;;;12.29;85.80;99637.47;4939604;29;20067;-78
2020/12/23 02:46:55;;;;;;;0.40;0.20;;;;;;;12.31;86.03;99624.28;4934474;29;20059;-77
2020/12/23 02:49:21;;;;;;;0.50;0.20;;;;;;;12.36;85.88;99615.97;4924776;29;20034;-78
2020/12/23 02:51:46;;;;;;;0.10;0.10;;;;;;;12.42;85.98;99605.75;4909816;29;20027;-76
2020/12/23 02:54:11;;;;;;;0.10;0.10;;;;;;;12.44;85.68;99599.97;4902939;29;20074;-80
2020/12/23 02:56:37;;;;;;;0.35;0.10;;;;;;;12.49;85.39;99597.94;4907245;29;20039;-78
2020/12/23 02:59:02;;;;;;;1.02;0.40;;;;;;;12.49;85.18;99597.16;4894973;29;20462;-76
2020/12/23 03:01:28;;;;;;;0.60;0.20;;;;;;;12.55;85.45;99609.66;4919823;29;20042;-77
2020/12/23 03:03:53;;;;;;;0.22;0.10;;;;;;;12.56;85.16;99608.56;4928454;29;20030;-78
2020/12/23 03:06:18;;;;;;;0.00;0.00;;;;;;;12.57;85.73;99610.16;4929599;29;20068;-77
2020/12/23 03:08:44;;;;;;;3.47;0.30;;;;;;;12.60;85.57;99606.84;4932515;29;20028;-77
2020/12/23 03:11:09;;;;;;;0.47;0.00;;;;;;;12.60;85.35;99593.13;4945656;29;20038;-77
2020/12/23 03:13:34;;;;;;;0.20;0.10;;;;;;;12.65;84.96;99584.81;4906215;29;20028;-78
2020/12/23 03:16:00;;;;;;;0.08;0.00;;;;;;;12.67;85.07;99582.56;4947489;29;20040;-78
2020/12/23 03:18:25;;;;;;;0.90;0.20;;;;;;;12.70;85.26;99583.91;4939743;29;20036;-78
2020/12/23 03:20:50;;;;;;;0.10;0.00;;;;;;;12.73;84.86;99564.91;4925186;29;20054;-77
2020/12/23 03:23:16;;;;;;;0.13;0.10;;;;;;;12.71;84.80;99566.34;4930531;29;20047;-78
2020/12/23 03:25:41;;;;;;;0.20;0.03;;;;;;;12.76;84.49;99558.00;4891664;29;20066;-77
2020/12/23 03:28:07;;;;;;;0.17;0.00;;;;;;;12.80;84.54;99560.97;4930900;29;20478;-77
2020/12/23 03:30:32;;;;;;;0.30;0.10;;;;;;;12.80;84.22;99552.72;4921366;29;20476;-77
2020/12/23 03:32:57;;;;;;;3.83;0.05;;;;;;;12.80;84.23;99552.72;4932863;29;20040;-78
2020/12/23 03:35:23;;;;;;;0.00;0.00;;;;;;;12.81;84.18;99546.13;4908426;29;20024;-79
2020/12/23 03:37:48;;;;;;;0.38;0.10;;;;;;;12.80;84.38;99552.72;4916982;29;20377;-77
2020/12/23 03:40:14;;;;;;;0.03;0.00;;;;;;;12.80;83.94;99547.25;4921801;29;20030;-78
2020/12/23 03:42:39;;;;;;;0.52;0.20;;;;;;;12.78;84.05;99533.84;4933240;29;20035;-78
2020/12/23 03:45:05;;;;;;;0.00;0.00;;;;;;;12.79;84.02;99542.88;4936012;29;20098;-77
2020/12/23 03:47:30;;;;;;;0.10;0.05;;;;;;;12.80;84.46;99537.06;4936458;29;20035;-79
2020/12/23 03:49:56;;;;;;;0.05;0.00;;;;;;;12.81;83.88;99535.16;4922852;29;20032;-79
2020/12/23 03:52:21;;;;;;;1.00;0.22;;;;;;;12.80;84.07;99530.78;4917658;29;20028;-79
2020/12/23 03:54:46;;;;;;;0.38;0.15;;;;;;;12.78;83.91;99527.53;4903738;29;20027;-77
2020/12/23 03:57:13;;;;;;;0.43;0.10;;;;;;;12.78;83.72;99530.28;4928178;29;20115;-75
2020/12/23 03:59:38;;;;;;;0.10;0.08;;;;;;;12.79;83.75;99529.16;4915180;29;20036;-76
2020/12/23 04:02:04;;;;;;;0.50;0.10;;;;;;;12.79;83.73;99534.63;4935741;29;20046;-76
2020/12/23 04:04:29;;;;;;;1.40;0.20;;;;;;;12.77;84.16;99532.19;4936834;29;20035;-76
2020/12/23 04:06:55;;;;;;;0.45;0.10;;;;;;;12.77;84.05;99528.66;4908636;29;20150;-75
2020/12/23 04:09:20;;;;;;;0.85;0.30;;;;;;;12.75;83.52;99517.97;4928961;29;20513;-76
2020/12/23 04:11:45;;;;;;;0.40;0.25;;;;;;;12.69;83.76;99498.06;4943196;29;20031;-76
2020/12/23 04:14:11;;;;;;;1.55;0.43;;;;;;;12.69;84.03;99492.56;4923578;29;20590;-77
2020/12/23 04:16:36;;;;;;;0.63;0.20;;;;;;;12.70;83.92;99488.72;4941561;29;20032;-76
2020/12/23 04:19:02;;;;;;;0.00;0.00;;;;;;;12.66;84.08;99476.72;4914039;29;20032;-76
2020/12/23 04:21:27;;;;;;;0.20;0.10;;;;;;;12.71;84.17;99478.56;4932744;29;20118;-77
2020/12/23 04:23:53;;;;;;;0.20;0.08;;;;;;;12.70;84.08;99472.25;4926586;29;20024;-77
2020/12/23 04:26:18;;;;;;;0.20;0.10;;;;;;;12.68;83.92;99469.00;4924089;29;20059;-75
2020/12/23 04:28:44;;;;;;;1.27;0.55;;;;;;;12.68;83.77;99485.44;4920715;29;20047;-76
2020/12/23 04:31:09;;;;;;;1.45;0.55;;;;;;;12.65;84.10;99480.56;4934263;29;20063;-75
2020/12/23 04:33:35;;;;;;;1.45;0.20;;;;;;;12.60;83.74;99488.91;4933073;29;20020;-75
2020/12/23 04:36:00;;;;;;;0.10;0.10;;;;;;;12.52;83.46;99470.41;4933173;29;20466;-76
2020/12/23 04:38:26;;;;;;;0.80;0.43;;;;;;;12.53;84.08;99480.25;4924465;29;20044;-78
2020/12/23 04:40:51;;;;;;;0.60;0.30;;;;;;;12.48;83.62;99486.63;4906087;29;20062;-77
2020/12/23 04:43:19;;;;;;;0.43;0.20;;;;;;;12.45;84.25;99487.25;4907791;29;20020;-77
2020/12/23 04:45:45;;;;;;;0.20;0.20;;;;;;;12.42;84.71;99481.56;4916318;29;20043;-77
2020/12/23 04:48:12;;;;;;;0.20;0.20;;;;;;;12.38;84.62;99487.66;4892462;29;20163;-76
2020/12/23 04:50:43;;;;;;;0.75;0.28;;;;;;;12.34;85.13;99477.59;4923867;29;20425;-77
2020/12/23 04:53:08;;;;;;;1.58;0.40;;;;;;;12.32;84.85;99477.84;4935834;29;20039;-77
2020/12/23 04:55:33;;;;;;;0.28;0.10;;;;;;;12.23;84.84;99464.03;4910771;29;20035;-77
2020/12/23 04:57:59;;;;;;;0.60;0.40;;;;;;;12.29;84.92;99478.47;4931947;29;20038;-77
2020/12/23 05:00:27;;;;;;;1.85;0.30;;;;;;;12.27;85.26;99464.25;4904796;29;20023;-77
2020/12/23 05:02:53;;;;;;;0.75;0.35;;;;;;;12.26;85.32;99457.13;4890777;29;20028;-77
2020/12/23 05:05:18;;;;;;;0.22;0.20;;;;;;;12.28;85.46;99454.94;4900410;29;20028;-76
2020/12/23 05:07:47;;;;;;;2.67;0.63;;;;;;;12.29;85.69;99447.50;4919949;29;20028;-77
2020/12/23 05:10:12;;;;;;;3.78;0.77;;;;;;;12.27;85.31;99439.59;4934007;29;20023;-77
2020/12/23 05:12:38;;;;;;;1.30;0.40;;;;;;;12.25;85.81;99433.59;4925366;29;20039;-77
2020/12/23 05:15:08;;;;;;;3.90;0.73;;;;;;;12.26;85.46;99437.94;4914780;29;20043;-77
2020/12/23 05:17:34;;;;;;;0.63;0.47;;;;;;;12.28;85.77;99434.91;4923160;29;20055;-77
2020/12/23 05:20:01;;;;;;;0.63;0.40;;;;;;;12.32;85.53;99434.00;4919584;29;20035;-77
2020/12/23 05:22:29;;;;;;;2.22;1.63;;;;;;;12.33;85.75;99430.16;4925106;29;20107;-78
2020/12/23 05:24:56;;;;;;;9.20;1.50;;;;;;;12.32;85.46;99428.50;4907896;29;20032;-77
2020/12/23 05:27:23;;;;;;;1.52;0.80;;;;;;;12.36;85.39;99424.06;4895437;29;20036;-77
2020/12/23 05:29:48;;;;;;;1.42;0.50;;;;;;;12.37;85.26;99428.44;4925537;29;20042;-77
2020/12/23 05:32:14;;;;;;;1.48;0.68;;;;;;;12.40;85.41;99429.75;4932635;29;20031;-77
2020/12/23 05:34:42;;;;;;;1.45;0.73;;;;;;;12.43;85.60;99431.09;4906759;29;20036;-78
2020/12/23 05:37:07;;;;;;;3.92;0.45;;;;;;;12.42;85.24;99432.22;4910482;29;20040;-79
2020/12/23 05:39:33;;;;;;;8.93;0.95;;;;;;;12.38;84.95;99421.84;4919831;29;20124;-81
2020/12/23 05:41:59;;;;;;;5.80;0.70;;;;;;;12.38;85.35;99421.84;4934290;29;20445;-81
2020/12/23 05:44:26;;;;;;;2.97;0.63;;;;;;;12.38;85.20;99410.88;4915136;29;20079;-80
2020/12/23 05:46:52;;;;;;;0.38;0.30;;;;;;;12.41;85.12;99417.66;4900660;29;20192;-78
2020/12/23 05:49:18;;;;;;;2.70;0.90;;;;;;;12.37;85.21;99409.25;4928298;29;20205;-79
2020/12/23 05:51:44;;;;;;;1.35;0.38;;;;;;;12.42;84.65;99396.56;4912660;29;20031;-78
2020/12/23 05:54:11;;;;;;;8.30;1.15;;;;;;;12.43;84.87;99399.00;4935742;29;20036;-80
2020/12/23 05:56:42;;;;;;;1.92;0.40;;;;;;;12.41;84.84;99387.50;4922307;29;20035;-80
2020/12/23 05:59:07;;;;;;;0.88;0.40;;;;;;;12.43;85.09;99389.97;4904262;29;20047;-79
2020/12/23 06:01:35;;;;;;;7.32;0.85;;;;;;;12.41;84.69;99382.03;4917818;29;20066;-79
2020/12/23 06:04:06;;;;;;;2.35;1.02;;;;;;;12.40;84.38;99383.16;4907992;29;20040;-78
2020/12/23 06:06:33;;;;;;;4.55;0.73;;;;;;;12.36;85.16;99380.19;4903988;29;20024;-78
2020/12/23 06:09:07;;;;;;;1.83;0.45;;;;;;;12.35;84.86;99378.59;4928319;29;20475;-78
2020/12/23 06:11:44;;;;;;;2.05;0.70;;;;;;;12.38;84.78;99374.41;4905851;29;20537;-81
2020/12/23 06:14:12;;;;;;;2.67;0.60;;;;;;;12.39;85.34;99368.63;4913223;29;20036;-78
2020/12/23 06:16:51;;;;;;;9.55;0.60;;;;;;;12.43;84.91;99370.78;4925730;29;20020;-77
2020/12/23 06:19:19;;;;;;;2.28;0.60;;;;;;;12.38;84.67;99358.78;4915834;29;20032;-78
2020/12/23 06:21:45;;;;;;;1.15;0.63;;;;;;;12.31;85.18;99352.91;4926694;29;20099;-77
2020/12/23 06:24:13;;;;;;;1.70;0.30;;;;;;;12.33;84.69;99355.34;4925830;29;20039;-79
2020/12/23 06:26:40;;;;;;;0.65;0.30;;;;;;;12.32;85.13;99340.00;4933709;29;20031;-79
2020/12/23 06:29:09;;;;;;;3.67;0.50;;;;;;;12.34;85.06;99351.47;4927493;29;20028;-79
2020/12/23 06:32:04;;;;;;;1.35;0.38;;;;;;;12.34;85.25;99332.28;4932394;29;20418;-80
2020/12/23 06:34:32;;;;;;;3.67;0.22;;;;;;;12.36;84.81;99330.84;4930733;29;20028;-80
2020/12/23 06:36:58;;;;;;;3.13;0.52;;;;;;;12.38;85.06;99333.28;4920065;29;20038;-80
2020/12/23 06:39:27;;;;;;;6.40;0.63;;;;;;;12.41;84.97;99332.69;4936286;29;20043;-81
2020/12/23 06:41:55;;;;;;;1.92;0.60;;;;;;;12.39;85.30;99329.44;4940911;29;20103;-83
2020/12/23 06:44:21;;;;;;;2.92;0.55;;;;;;;12.35;85.34;99320.19;4925159;29;20478;-83
2020/12/23 06:46:58;;;;;;;1.30;0.60;;;;;;;12.39;85.20;99308.31;4919682;29;20047;-83
2020/12/23 06:49:43;;;;;;;4.80;0.68;;;;;;;12.38;85.51;99306.69;4939833;29;20024;-80
2020/12/23 06:52:24;;;;;;;5.70;1.08;;;;;;;12.39;84.73;99302.81;4920773;29;20028;-81
2020/12/23 06:54:51;;;;;;;2.72;0.93;;;;;;;12.39;85.15;99302.03;4926396;29;20032;-78
2020/12/23 06:57:35;;;;;;;1.67;1.10;;;;;;;12.37;85.19;99283.13;4887356;29;20087;-78
2020/12/23 07:00:05;;;;;;;1.15;0.40;;;;;;;12.34;85.60;99281.00;4923872;29;20478;-79
2020/12/23 07:02:41;;;;;;;0.63;0.08;;;;;;;12.36;85.12;99280.69;4924837;29;20032;-80
2020/12/23 07:05:30;;;;;;;0.50;0.28;;;;;;;12.35;85.69;99279.06;4935504;29;20042;-79
2020/12/23 07:07:58;;;;;;;0.40;0.35;;;;;;;12.32;85.42;99269.53;4933381;29;20023;-80
2020/12/23 07:10:24;;;;;;;0.38;0.30;;;;;;;12.32;85.46;99264.03;4907210;29;20043;-79
2020/12/23 07:12:54;;;;;;;0.43;0.40;;;;;;;12.30;85.95;99268.22;4932425;29;20103;-79
2020/12/23 07:15:24;;;;;;;0.57;0.57;;;;;;;12.27;85.83;99257.88;4936605;29;20074;-80
2020/12/23 07:17:53;;;;;;;0.75;0.75;;;;;;;12.22;86.40;99265.09;4937123;29;20031;-79
2020/12/23 07:20:24;;;;;;;0.20;0.20;;;;;;;12.19;85.97;99257.47;4918548;29;20031;-80
2020/12/23 07:22:52;;;;;;;0.82;0.35;;;;;;;12.17;86.48;99258.88;4931504;29;20028;-79
2020/12/23 07:25:24;;;;;;;0.38;0.20;;;;;;;12.17;86.28;99261.63;4936343;29;20024;-79
2020/12/23 07:27:59;;;;;;;1.25;0.20;;;;;;;12.16;86.41;99254.53;4935511;29;20051;-79
2020/12/23 07:30:25;;;;;;;0.27;0.07;;;;;;;12.12;86.64;99239.78;4927614;29;20054;-79
2020/12/23 07:33:18;;;;;;;1.83;0.10;;;;;;;12.15;86.56;99237.28;4922520;29;20258;-77
2020/12/23 07:35:46;;;;;;;0.80;0.20;;;;;;;12.12;86.62;99237.06;4921670;29;20039;-78
2020/12/23 07:38:12;;;;;;;1.20;0.40;;;;;;;12.10;87.20;99228.34;4914779;29;20040;-81
2020/12/23 07:40:38;;;;;;;1.17;0.20;;;;;;;12.12;86.77;99237.06;4921225;29;20039;-80
2020/12/23 07:43:04;;;;;;;1.90;0.40;;;;;;;12.12;86.58;99226.94;4930022;29;20066;-82
2020/12/23 07:45:31;;;;;;;1.42;0.20;;;;;;;12.10;86.64;99206.41;4922532;29;20054;-79
2020/12/23 07:48:22;;;;;;;1.60;0.63;;;;;;;12.16;87.17;99218.88;4937861;29;20079;-79
2020/12/23 07:50:58;;;;;;;1.25;0.50;;;;;;;12.18;87.11;99211.19;4927975;29;20031;-76
2020/12/23 07:53:24;;;;;;;;;;;;;;;12.15;86.66;99231.78;4926456;29;20095;-76
2020/12/23 07:55:56;;;;;;;0.57;0.30;;;;;;;12.08;87.36;99209.47;4931645;29;19911;-77
2020/12/23 07:58:21;;;;;;;3.58;0.65;;;;;;;12.01;88.00;99201.66;4930433;29;20027;-76
2020/12/23 08:00:52;;;;;;;2.00;0.40;;;;;;;11.98;87.31;99199.53;4936513;28;20075;-74
2020/12/23 08:03:25;;;;;;;1.00;0.45;;;;;;;11.95;88.07;99189.19;4938438;29;20059;-75
2020/12/23 08:06:03;;;;;;;0.75;0.70;;;;;;;12.02;88.09;99195.06;4931139;29;20079;-76
2020/12/23 08:08:28;;;;;;;0.68;0.40;;;;;;;12.07;87.52;99196.06;4943839;29;20080;-76
2020/12/23 08:11:24;;;;;;;1.00;0.73;;;;;;;12.08;87.88;99189.50;4917020;29;20036;-86
2020/12/23 08:13:50;;;;;;;1.58;0.57;;;;;;;12.03;87.84;99174.78;4970969;28;20019;-82
2020/12/23 08:16:16;;;;;;;2.00;0.73;;;;;;;12.11;87.99;99188.88;4933214;29;20039;-77
2020/12/23 08:18:43;;;;;;;2.83;1.15;;;;;;;12.10;87.96;99173.53;4952435;29;20059;-79
2020/12/23 08:21:13;;;;;;;6.47;1.27;;;;;;;12.10;87.74;99173.53;4949071;29;20035;-74
2020/12/23 08:23:40;;;;;;;2.70;1.05;;;;;;;12.13;87.87;99161.97;4944233;29;20035;-77
2020/12/23 08:26:09;;;;;;;3.50;1.10;;;;;;;12.13;87.79;99156.47;4937887;29;20067;-77
2020/12/23 08:28:44;;;;;;;9.30;1.33;;;;;;;12.14;87.94;99158.13;4930779;29;20028;-78
2020/12/23 08:31:19;;;;;;;2.75;0.90;;;;;;;12.14;88.61;99153.44;4938879;29;20023;-78
2020/12/23 08:33:47;;;;;;;1.23;0.60;;;;;;;12.12;88.71;99165.81;4934392;29;20032;-77
2020/12/23 08:36:14;;;;;;;2.63;0.70;;;;;;;12.10;88.38;99152.41;4931161;29;20032;-77
2020/12/23 08:38:41;;;;;;;0.77;0.63;;;;;;;12.17;88.09;99152.00;4931787;29;20039;-75
2020/12/23 08:41:20;;;;;;;1.90;0.40;;;;;;;12.17;88.29;99152.00;4918005;29;20028;-73
2020/12/23 08:43:48;;;;;;;1.88;0.40;;;;;;;12.15;88.42;99154.22;4902020;29;20087;-73
2020/12/23 08:46:37;;;;;;;1.25;0.40;;;;;;;12.14;88.38;99141.66;4927062;29;20596;-74
2020/12/23 08:49:03;;;;;;;3.47;0.70;;;;;;;12.12;88.43;99141.16;4926257;29;20028;-74
2020/12/23 08:51:30;;;;;;;2.47;0.95;;;;;;;12.14;88.55;99127.97;4900877;29;20056;-73
2020/12/23 08:53:55;;;;;;;5.78;0.70;;;;;;;12.12;87.92;99138.41;4930982;29;20028;-73
2020/12/23 08:56:25;;;;;;;3.45;0.57;;;;;;;12.15;88.51;99137.78;4895451;29;20055;-74
2020/12/23 08:58:58;;;;;;;3.70;0.68;;;;;;;12.12;87.92;99127.44;4924360;29;20209;-73
2020/12/23 09:01:24;;;;;;;5.18;0.90;;;;;;;12.08;88.51;99115.50;4933495;29;20076;-73
2020/12/23 09:03:57;;;;;;;1.40;0.40;;;;;;;12.09;88.08;99111.63;4901987;29;20031;-74
2020/12/23 09:06:22;;;;;;;2.47;0.40;;;;;;;12.12;87.75;99113.75;4923918;29;20455;-73
2020/12/23 09:08:47;;;;;;;4.22;0.30;;;;;;;12.13;88.41;99107.16;4919504;29;20062;-74
2020/12/23 09:11:13;;;;;;;2.63;0.38;;;;;;;12.11;88.05;99120.38;4887831;29;20097;-73
2020/12/23 09:13:38;;;;;;;4.68;0.52;;;;;;;12.08;88.07;99110.81;4913671;29;20067;-79
2020/12/23 09:16:03;;;;;;;0.73;0.20;;;;;;;12.09;88.61;99106.16;4885926;29;20046;-74
2020/12/23 09:18:29;;;;;;;5.28;0.75;;;;;;;12.09;88.04;99111.63;4917334;29;20031;-74
2020/12/23 09:20:59;;;;;;;1.67;0.40;;;;;;;12.14;88.21;99108.78;4903835;29;20087;-76
2020/12/23 09:23:25;;;;;;;4.82;0.98;;;;;;;12.15;88.26;99099.44;4916905;29;20040;-74
2020/12/23 09:25:51;;;;;;;3.00;0.82;;;;;;;12.15;88.04;99093.94;4915859;29;20528;-73
2020/12/23 09:28:16;;;;;;;4.00;0.77;;;;;;;12.17;88.09;99103.47;4917605;29;20040;-72
2020/12/23 09:30:53;;;;;;;10.95;1.00;;;;;;;12.19;87.76;99095.78;4934558;29;20083;-77
2020/12/23 09:33:20;;;;;;;5.38;0.90;;;;;;;12.25;87.90;99099.22;4908102;29;20059;-77
2020/12/23 09:35:47;;;;;;;6.88;1.42;;;;;;;12.31;87.61;99087.00;4911796;29;20024;-75
2020/12/23 09:38:19;;;;;;;5.78;1.02;;;;;;;12.35;87.94;99098.97;4921121;29;20043;-76
2020/12/23 09:40:50;;;;;;;6.63;1.00;;;;;;;12.39;87.77;99093.66;4928044;29;20369;-74
2020/12/23 09:43:26;;;;;;;10.23;1.88;;;;;;;12.43;87.75;99088.41;4911381;29;20024;-76
2020/12/23 09:45:54;;;;;;;3.55;0.80;;;;;;;12.45;87.37;99091.63;4905294;29;20028;-74
2020/12/23 09:48:23;;;;;;;2.85;1.00;;;;;;;12.48;87.31;99088.25;4930520;29;20015;-73
2020/12/23 09:50:48;;;;;;;6.65;0.57;;;;;;;12.56;87.17;99084.78;4919442;29;20028;-74
2020/12/23 09:53:14;;;;;;;1.58;0.93;;;;;;;12.59;87.02;99086.91;4932327;29;20039;-73
2020/12/23 09:55:43;;;;;;;4.38;0.70;;;;;;;12.60;86.68;99074.81;4911687;29;20031;-74
2020/12/23 09:58:10;;;;;;;7.55;1.05;;;;;;;12.58;86.33;99074.28;4894843;29;20044;-74
2020/12/23 10:00:36;;;;;;;14.13;1.27;;;;;;;12.60;85.66;99066.59;4938548;29;20042;-74
2020/12/23 10:03:02;;;;;;;5.88;1.63;;;;;;;12.65;86.01;99063.69;4919395;29;20040;-73
2020/12/23 10:05:29;;;;;;;3.28;0.80;;;;;;;12.69;85.70;99056.47;4908060;29;20028;-75
2020/12/23 10:07:54;;;;;;;13.75;1.40;;;;;;;12.73;85.97;99060.22;4933111;29;20020;-74
2020/12/23 10:10:20;;;;;;;4.90;1.13;;;;;;;12.82;85.24;99064.91;4945241;28;20470;-74
2020/12/23 10:12:45;;;;;;;2.83;0.60;;;;;;;12.87;85.82;99053.81;4914845;29;20032;-74
2020/12/23 10:15:11;;;;;;;3.67;0.85;;;;;;;12.98;85.29;99048.84;4936409;29;20019;-74
2020/12/23 10:17:37;;;;;;;12.73;2.08;;;;;;;13.22;85.02;99059.47;4918439;29;20027;-74
2020/12/23 10:20:06;;;;;;;7.05;1.33;;;;;;;13.33;83.98;99043.50;4914566;29;20039;-73
2020/12/23 10:22:32;;;;;;;2.92;1.05;;;;;;;13.33;83.13;99049.84;4931115;29;20028;-73
2020/12/23 10:24:58;;;;;;;8.35;1.42;;;;;;;13.30;83.21;99036.72;4894758;29;20051;-74
2020/12/23 10:27:24;;;;;;;7.82;1.15;;;;;;;13.26;83.35;99033.81;4902632;29;20485;-77
2020/12/23 10:29:49;;;;;;;5.63;1.48;;;;;;;13.23;82.90;99028.16;4910057;29;20035;-74
2020/12/23 10:32:15;;;;;;;14.63;2.05;;;;;;;13.29;82.96;99040.59;4916659;29;20027;-76
2020/12/23 10:34:41;;;;;;;5.50;1.58;;;;;;;13.19;82.98;99035.41;4906795;29;20039;-76
2020/12/23 10:37:07;;;;;;;10.80;1.38;;;;;;;13.01;82.88;99021.63;4920760;29;20027;-74
2020/12/23 10:39:32;;;;;;;10.25;1.23;;;;;;;12.90;83.38;99014.78;4907493;29;20098;-73
2020/12/23 10:41:58;;;;;;;14.35;1.45;;;;;;;12.87;82.22;99032.66;4934271;29;20099;-74
2020/12/23 10:44:24;;;;;;;15.90;2.28;;;;;;;12.85;81.42;99012.16;4918170;29;20047;-72
2020/12/23 10:47:07;;;;;;;6.57;1.20;;;;;;;12.90;81.63;98999.13;4931734;29;20037;-72
2020/12/23 10:49:33;;;;;;;17.95;1.92;;;;;;;12.90;80.54;99009.28;4944900;28;20087;-73
2020/12/23 10:51:59;;;;;;;9.68;1.75;;;;;;;12.88;80.49;99006.06;4933188;29;20524;-74
2020/12/23 10:54:25;;;;;;;11.00;2.72;;;;;;;12.72;79.97;99003.72;4932165;29;20032;-80
2020/12/23 10:56:50;;;;;;;15.07;1.65;;;;;;;12.63;79.12;99000.13;4917295;29;20031;-77
2020/12/23 10:59:16;;;;;;;9.23;1.65;;;;;;;12.51;79.15;99005.38;4914732;29;20043;-76
2020/12/23 11:01:42;;;;;;;6.78;1.23;;;;;;;12.47;79.30;99012.59;4926667;29;20079;-77
2020/12/23 11:04:07;;;;;;;23.05;2.70;;;;;;;12.43;79.57;99003.41;4921786;29;20375;-77
2020/12/23 11:06:33;;;;;;;6.97;1.45;;;;;;;12.30;79.36;98992.19;4916786;29;20024;-76
2020/12/23 11:08:59;;;;;;;21.27;1.90;;;;;;;12.30;79.72;99013.31;4945444;28;20489;-77
2020/12/23 11:11:25;;;;;;;9.77;1.77;;;;;;;12.24;79.53;98985.22;4908768;29;20059;-76
2020/12/23 11:13:50;;;;;;;9.05;1.35;;;;;;;12.26;79.01;98980.22;4930776;29;20032;-75
2020/12/23 11:16:17;;;;;;;11.35;2.38;;;;;;;12.34;78.72;98981.41;4905269;29;20068;-76
2020/12/23 11:18:42;;;;;;;6.80;0.98;;;;;;;12.44;77.97;98978.41;4936912;29;20032;-74
2020/12/23 11:21:09;;;;;;;11.95;1.20;;;;;;;12.59;77.22;98966.25;4928583;29;20118;-74
2020/12/23 11:23:35;;;;;;;8.90;1.60;;;;;;;12.67;77.18;98968.19;4938069;29;20031;-74
2020/12/23 11:26:01;;;;;;;4.88;1.10;;;;;;;12.77;76.76;98960.84;4917644;29;20091;-75
2020/12/23 11:28:28;;;;;;;4.03;1.42;;;;;;;12.90;75.82;98959.91;4929291;29;20028;-76
2020/12/23 11:30:54;;;;;;;3.10;1.17;;;;;;;13.02;75.48;98946.38;4935158;29;20028;-74
2020/12/23 11:33:19;;;;;;;16.38;1.45;;;;;;;13.33;74.26;98961.97;4920373;29;20024;-77
2020/12/23 11:35:46;;;;;;;3.63;0.88;;;;;;;13.63;73.25;98964.16;4931836;29;20036;-77